createdAt,value
2019-01-06T00:02:28.061Z,7.10
2019-01-06T00:07:39.580Z,7.10
2019-01-06T00:12:52.357Z,7.10
2019-01-06T00:18:15.255Z,7.00
2019-01-06T00:23:26.184Z,6.50
2019-01-06T00:28:33.553Z,7.00
2019-01-06T00:33:45.192Z,7.00
2019-01-06T00:38:56.077Z,7.00
2019-01-06T00:44:07.775Z,7.10
2019-01-06T00:49:19.509Z,7.00
2019-01-06T00:54:31.302Z,7.10
2019-01-06T00:59:43.794Z,7.00
2019-01-06T01:05:06.659Z,7.10
2019-01-06T01:10:28.292Z,7.00
2019-01-06T01:15:39.527Z,7.00
2019-01-06T01:20:51.988Z,7.00
2019-01-06T01:26:13.591Z,6.90
2019-01-06T01:31:24.612Z,6.80
2019-01-06T01:36:46.021Z,6.80
2019-01-06T01:42:09.319Z,6.60
2019-01-06T01:47:20.322Z,6.60
2019-01-06T01:52:41.433Z,6.70
2019-01-06T01:57:53.949Z,6.60
2019-01-06T02:03:18.367Z,6.50
2019-01-06T02:08:44.187Z,6.50
2019-01-06T02:14:08.804Z,6.60
2019-01-06T02:19:18.986Z,6.70
2019-01-06T02:24:40.643Z,6.60
2019-01-06T02:30:11.371Z,6.60
2019-01-06T02:35:24.490Z,6.60
2019-01-06T02:40:55.128Z,6.60
2019-01-06T02:45:57.541Z,6.70
2019-01-06T02:51:12.225Z,6.70
2019-01-06T02:56:23.514Z,6.60
2019-01-06T03:01:35.013Z,6.60
2019-01-06T03:06:46.285Z,6.70
2019-01-06T03:12:01.809Z,6.70
2019-01-06T03:17:17.467Z,6.60
2019-01-06T03:22:48.205Z,6.70
2019-01-06T03:27:59.401Z,6.70
2019-01-06T03:33:10.588Z,6.80
2019-01-06T03:38:36.598Z,6.70
2019-01-06T03:43:48.207Z,6.80
2019-01-06T03:48:59.632Z,6.80
2019-01-06T03:54:10.946Z,6.70
2019-01-06T03:59:35.904Z,6.70
2019-01-06T04:04:51.068Z,6.80
2019-01-06T04:10:02.418Z,6.80
2019-01-06T04:15:15.572Z,6.80
2019-01-06T04:20:28.075Z,6.80
2019-01-06T04:25:39.411Z,6.80
2019-01-06T04:30:54.401Z,6.70
2019-01-06T04:36:06.860Z,6.80
2019-01-06T04:41:34.453Z,6.70
2019-01-06T04:46:48.482Z,6.70
2019-01-06T04:52:09.763Z,6.70
2019-01-06T04:57:37.534Z,6.70
2019-01-06T05:02:48.915Z,6.80
2019-01-06T05:08:00.240Z,6.80
2019-01-06T05:13:11.607Z,6.80
2019-01-06T05:18:22.425Z,6.70
2019-01-06T05:23:37.026Z,6.70
2019-01-06T05:28:45.371Z,6.50
2019-01-06T05:33:57.892Z,6.70
2019-01-06T05:39:10.477Z,6.70
2019-01-06T05:44:22.977Z,6.70
2019-01-06T05:49:35.457Z,6.60
2019-01-06T05:54:59.902Z,6.40
2019-01-06T06:00:27.695Z,6.40
2019-01-06T06:05:49.436Z,6.30
2019-01-06T06:10:56.481Z,6.30
2019-01-06T06:16:07.774Z,6.30
2019-01-06T06:21:29.534Z,6.30
2019-01-06T06:26:40.888Z,6.30
2019-01-06T06:31:59.413Z,6.30
2019-01-06T06:37:11.974Z,6.30
2019-01-06T06:42:24.652Z,6.30
2019-01-06T06:47:36.061Z,6.30
2019-01-06T06:52:48.431Z,6.30
2019-01-06T06:58:45.025Z,6.30
2019-01-06T07:03:59.921Z,6.20
2019-01-06T07:09:15.418Z,6.10
2019-01-06T07:14:26.915Z,6.20
2019-01-06T07:19:41.830Z,6.10
2019-01-06T07:24:54.185Z,6.20
2019-01-06T07:30:06.627Z,6.20
2019-01-06T07:35:18.111Z,6.20
2019-01-06T07:40:31.059Z,6.20
2019-01-06T07:45:49.899Z,6.10
2019-01-06T07:51:14.783Z,6.10
2019-01-06T07:56:25.898Z,6.20
2019-01-06T08:01:37.287Z,6.20
2019-01-06T08:06:48.892Z,6.30
2019-01-06T08:12:07.710Z,6.20
2019-01-06T08:17:19.252Z,6.20
2019-01-06T08:22:40.783Z,6.30
2019-01-06T08:28:05.629Z,6.30
2019-01-06T08:33:16.670Z,6.40
2019-01-06T08:38:28.031Z,6.30
2019-01-06T08:43:39.391Z,6.30
2019-01-06T08:48:50.748Z,6.40
2019-01-06T08:54:09.390Z,6.40
2019-01-06T08:59:20.739Z,6.50
2019-01-06T09:04:25.707Z,6.60
2019-01-06T09:09:45.725Z,6.70
2019-01-06T09:14:51.362Z,6.60
2019-01-06T09:20:03.848Z,6.70
2019-01-06T09:25:41.015Z,6.80
2019-01-06T09:30:51.697Z,6.80
2019-01-06T09:36:03.384Z,7.00
2019-01-06T09:41:18.612Z,7.00
2019-01-06T09:46:40.060Z,7.00
2019-01-06T09:51:55.305Z,7.00
2019-01-06T09:57:06.640Z,7.20
2019-01-06T10:02:19.163Z,7.30
2019-01-06T10:07:30.507Z,7.20
2019-01-06T10:12:46.984Z,7.20
2019-01-06T10:18:17.863Z,7.40
2019-01-06T10:23:36.451Z,7.40
2019-01-06T10:28:47.630Z,7.30
2019-01-06T10:34:03.172Z,7.40
2019-01-06T10:39:27.699Z,7.50
2019-01-06T10:44:42.959Z,7.60
2019-01-06T10:50:04.650Z,7.70
2019-01-06T10:55:21.653Z,7.50
2019-01-06T11:00:33.906Z,7.50
2019-01-06T11:05:43.137Z,7.80
2019-01-06T11:10:54.304Z,7.90
2019-01-06T11:16:13.138Z,7.90
2019-01-06T11:21:32.453Z,7.90
2019-01-06T11:26:54.379Z,8.10
2019-01-06T11:32:11.136Z,8.00
2019-01-06T11:37:23.438Z,8.20
2019-01-06T11:42:34.707Z,8.00
2019-01-06T11:47:46.183Z,8.10
2019-01-06T11:52:57.522Z,7.40
2019-01-06T11:58:09.033Z,8.30
2019-01-06T12:03:31.494Z,8.20
2019-01-06T12:08:45.955Z,8.40
2019-01-06T12:13:56.695Z,8.60
2019-01-06T12:19:12.451Z,8.60
2019-01-06T12:24:31.673Z,8.60
2019-01-06T12:29:48.390Z,8.40
2019-01-06T12:35:00.586Z,8.30
2019-01-06T12:40:05.470Z,8.40
2019-01-06T12:45:16.921Z,8.70
2019-01-06T12:50:29.528Z,8.90
2019-01-06T12:55:42.015Z,8.90
2019-01-06T13:01:00.603Z,8.60
2019-01-06T13:06:25.279Z,8.50
2019-01-06T13:11:49.352Z,8.40
2019-01-06T13:17:20.470Z,8.20
2019-01-06T13:22:35.927Z,8.20
2019-01-06T13:28:02.788Z,8.40
2019-01-06T13:33:29.388Z,8.40
2019-01-06T13:38:44.714Z,8.70
2019-01-06T13:43:59.971Z,8.80
2019-01-06T13:49:30.505Z,8.90
2019-01-06T13:54:43.214Z,8.90
2019-01-06T14:00:08.061Z,9.00
2019-01-06T14:05:33.252Z,8.90
2019-01-06T14:10:45.923Z,8.90
2019-01-06T14:15:57.162Z,8.90
2019-01-06T14:21:25.384Z,8.90
2019-01-06T14:26:50.349Z,8.60
2019-01-06T14:32:15.672Z,7.90
2019-01-06T14:37:31.956Z,8.10
2019-01-06T14:42:49.431Z,8.00
2019-01-06T14:47:52.381Z,7.90
2019-01-06T14:53:05.187Z,7.80
2019-01-06T14:58:33.055Z,7.60
2019-01-06T15:04:12.103Z,7.80
2019-01-06T15:09:23.944Z,7.90
2019-01-06T15:14:42.699Z,7.70
2019-01-06T15:19:54.136Z,7.60
2019-01-06T15:25:09.413Z,7.50
2019-01-06T15:30:36.115Z,7.60
2019-01-06T15:35:46.650Z,7.70
2019-01-06T15:41:01.715Z,7.50
2019-01-06T15:46:12.765Z,7.50
2019-01-06T15:51:30.880Z,7.60
2019-01-06T15:56:40.283Z,7.40
2019-01-06T16:02:10.885Z,7.30
2019-01-06T16:07:26.266Z,7.30
2019-01-06T16:12:37.420Z,7.40
2019-01-06T16:17:49.978Z,7.50
2019-01-06T16:23:01.860Z,7.50
2019-01-06T16:28:12.880Z,8.30
2019-01-06T16:33:34.509Z,7.40
2019-01-06T16:38:45.989Z,7.50
2019-01-06T16:44:05.283Z,7.20
2019-01-06T16:49:27.093Z,7.30
2019-01-06T16:54:42.839Z,7.40
2019-01-06T16:59:55.397Z,7.30
2019-01-06T17:05:08.018Z,7.40
2019-01-06T17:10:17.669Z,7.40
2019-01-06T17:15:42.447Z,7.40
2019-01-06T17:20:46.421Z,7.40
2019-01-06T17:26:03.638Z,7.50
2019-01-06T17:31:14.980Z,8.30
2019-01-06T17:36:26.295Z,7.50
2019-01-06T17:41:49.264Z,7.30
2019-01-06T17:47:00.504Z,7.20
2019-01-06T17:52:19.288Z,7.10
2019-01-06T17:57:47.225Z,7.00
2019-01-06T18:02:58.610Z,6.90
2019-01-06T18:08:10.138Z,6.80
2019-01-06T18:13:21.570Z,6.90
2019-01-06T18:18:32.559Z,6.90
2019-01-06T18:23:51.177Z,7.00
2019-01-06T18:29:18.717Z,7.20
2019-01-06T18:34:37.406Z,7.10
2019-01-06T18:39:48.642Z,7.20
2019-01-06T18:45:13.483Z,7.20
2019-01-06T18:50:30.192Z,7.00
2019-01-06T18:55:41.419Z,7.00
2019-01-06T19:00:48.209Z,7.10
2019-01-06T19:05:57.995Z,7.00
2019-01-06T19:11:09.377Z,7.00
2019-01-06T19:16:35.590Z,7.00
2019-01-06T19:21:51.014Z,7.10
2019-01-06T19:27:15.638Z,7.10
2019-01-06T19:32:31.532Z,7.20
2019-01-06T19:37:55.522Z,7.20
2019-01-06T19:43:15.073Z,7.20
2019-01-06T19:48:40.898Z,7.10
2019-01-06T19:53:52.377Z,7.20
2019-01-06T19:59:17.554Z,7.00
2019-01-06T20:04:33.756Z,6.90
2019-01-06T20:09:37.684Z,6.90
2019-01-06T20:14:46.176Z,6.90
2019-01-06T20:20:07.441Z,6.90
2019-01-06T20:25:19.058Z,7.00
2019-01-06T20:30:31.641Z,7.00
2019-01-06T20:35:44.385Z,7.10
2019-01-06T20:40:55.821Z,7.10
2019-01-06T20:46:23.813Z,7.10
2019-01-06T20:51:46.767Z,7.10
2019-01-06T20:56:57.912Z,7.00
2019-01-06T21:02:10.540Z,7.00
2019-01-06T21:07:35.291Z,7.10
2019-01-06T21:12:47.852Z,7.30
2019-01-06T21:18:00.855Z,7.20
2019-01-06T21:23:15.045Z,7.20
2019-01-06T21:28:37.640Z,7.00
2019-01-06T21:33:42.620Z,7.00
2019-01-06T21:38:57.185Z,6.90
2019-01-06T21:44:09.328Z,7.00
2019-01-06T21:49:27.520Z,7.00
2019-01-06T21:54:42.502Z,7.10
2019-01-06T21:59:58.315Z,6.90
2019-01-06T22:05:11.404Z,6.90
2019-01-06T22:10:24.616Z,6.90
2019-01-06T22:15:51.203Z,6.90
2019-01-06T22:21:02.811Z,6.90
2019-01-06T22:26:09.496Z,6.80
2019-01-06T22:31:30.719Z,6.80
2019-01-06T22:36:43.207Z,6.70
2019-01-06T22:42:13.607Z,6.60
2019-01-06T22:47:30.267Z,6.60
2019-01-06T22:52:50.931Z,6.60
2019-01-06T22:58:11.626Z,6.70
2019-01-06T23:03:24.670Z,6.50
2019-01-06T23:08:40.337Z,6.40
2019-01-06T23:14:06.447Z,6.60
2019-01-06T23:19:29.059Z,6.50
2019-01-06T23:24:40.202Z,6.50
2019-01-06T23:30:02.368Z,6.60
2019-01-06T23:35:17.599Z,6.60
2019-01-06T23:40:28.986Z,6.60
2019-01-06T23:45:47.492Z,6.50
2019-01-06T23:51:15.300Z,6.60
2019-01-06T23:56:34.570Z,6.60
